createdAt,value
2019-02-25T00:00:54.971Z,5.43
2019-02-25T00:03:24.335Z,5.53
2019-02-25T00:05:53.666Z,5.27
2019-02-25T00:08:23.035Z,5.83
2019-02-25T00:10:52.729Z,5.30
2019-02-25T00:13:22.402Z,5.50
2019-02-25T00:15:52.139Z,5.97
2019-02-25T00:18:21.655Z,6.10
2019-02-25T00:20:51.127Z,5.77
2019-02-25T00:23:20.391Z,6.57
2019-02-25T00:25:49.691Z,6.10
2019-02-25T00:28:19.044Z,5.93
2019-02-25T00:30:48.999Z,6.40
2019-02-25T00:33:18.658Z,6.00
2019-02-25T00:35:49.038Z,6.57
2019-02-25T00:38:19.176Z,6.73
2019-02-25T00:40:48.607Z,7.90
2019-02-25T00:43:18.067Z,8.23
2019-02-25T00:45:47.488Z,6.80
2019-02-25T00:48:16.671Z,6.13
2019-02-25T00:50:46.612Z,6.90
2019-02-25T00:53:16.025Z,6.27
2019-02-25T00:55:45.294Z,6.60
2019-02-25T00:58:15.222Z,6.10
2019-02-25T01:00:44.525Z,7.33
2019-02-25T01:03:13.731Z,9.10
2019-02-25T01:05:44.070Z,8.53
2019-02-25T01:08:13.387Z,11.60
2019-02-25T01:10:43.542Z,10.47
2019-02-25T01:13:12.929Z,9.13
2019-02-25T01:15:42.179Z,7.73
2019-02-25T01:18:11.594Z,6.33
2019-02-25T01:20:41.486Z,8.13
2019-02-25T01:23:12.010Z,8.27
2019-02-25T01:25:41.524Z,7.47
2019-02-25T01:28:10.959Z,6.80
2019-02-25T01:30:40.729Z,6.80
2019-02-25T01:33:09.919Z,6.27
2019-02-25T01:35:39.261Z,6.50
2019-02-25T01:38:08.465Z,6.63
2019-02-25T01:40:38.095Z,6.50
2019-02-25T01:43:07.989Z,5.37
2019-02-25T01:45:37.239Z,6.03
2019-02-25T01:48:06.475Z,6.63
2019-02-25T01:50:35.906Z,5.90
2019-02-25T01:53:05.150Z,5.87
2019-02-25T01:55:34.716Z,5.33
2019-02-25T01:58:04.041Z,5.60
2019-02-25T02:00:34.111Z,5.37
2019-02-25T02:03:03.385Z,4.93
2019-02-25T02:05:32.567Z,4.27
2019-02-25T02:08:01.833Z,5.10
2019-02-25T02:10:30.986Z,4.00
2019-02-25T02:13:00.520Z,4.03
2019-02-25T02:15:29.745Z,4.00
2019-02-25T02:17:59.029Z,4.40
2019-02-25T02:20:28.276Z,3.90
2019-02-25T02:22:57.585Z,4.07
2019-02-25T02:25:26.758Z,4.17
2019-02-25T02:27:55.967Z,7.63
2019-02-25T02:30:25.202Z,8.53
2019-02-25T02:32:54.380Z,23.40
2019-02-25T02:35:23.688Z,11.47
2019-02-25T02:37:53.181Z,6.90
2019-02-25T02:40:22.360Z,8.30
2019-02-25T02:42:53.747Z,6.77
2019-02-25T02:45:49.529Z,5.70
2019-02-25T02:48:31.675Z,4.93
2019-02-25T02:51:01.006Z,4.27
2019-02-25T02:53:30.317Z,4.83
2019-02-25T02:55:59.562Z,5.10
2019-02-25T02:58:28.833Z,4.83
2019-02-25T03:00:58.134Z,5.37
2019-02-25T03:03:27.409Z,5.13
2019-02-25T03:05:56.566Z,5.50
2019-02-25T03:08:25.793Z,5.87
2019-02-25T03:10:54.963Z,5.27
2019-02-25T03:13:24.241Z,5.40
2019-02-25T03:15:53.429Z,5.43
2019-02-25T03:18:22.677Z,5.10
2019-02-25T03:20:51.952Z,5.50
2019-02-25T03:23:21.436Z,5.40
2019-02-25T03:25:50.956Z,5.63
2019-02-25T03:28:20.221Z,6.27
2019-02-25T03:30:49.466Z,5.53
2019-02-25T03:33:18.823Z,5.97
2019-02-25T03:35:48.073Z,6.03
2019-02-25T03:38:17.559Z,5.50
2019-02-25T03:40:47.069Z,5.97
2019-02-25T03:43:16.310Z,5.93
2019-02-25T03:45:45.564Z,5.80
2019-02-25T03:48:14.715Z,5.43
2019-02-25T03:50:43.997Z,6.63
2019-02-25T03:53:13.671Z,6.37
2019-02-25T03:55:42.898Z,5.93
2019-02-25T03:58:12.128Z,5.70
2019-02-25T04:00:41.384Z,5.90
2019-02-25T04:03:10.821Z,6.47
2019-02-25T04:05:40.636Z,6.27
2019-02-25T04:08:10.263Z,6.17
2019-02-25T04:10:39.712Z,6.00
2019-02-25T04:13:09.447Z,5.57
2019-02-25T04:15:41.857Z,5.50
2019-02-25T04:18:11.388Z,6.13
2019-02-25T04:20:40.957Z,5.87
2019-02-25T04:23:10.473Z,5.30
2019-02-25T04:25:39.628Z,5.77
2019-02-25T04:28:08.852Z,5.67
2019-02-25T04:30:38.489Z,5.77
2019-02-25T04:33:07.838Z,6.27
2019-02-25T04:35:37.069Z,6.33
2019-02-25T04:38:06.549Z,7.50
2019-02-25T04:40:35.777Z,8.30
2019-02-25T04:43:05.034Z,7.17
2019-02-25T04:45:34.359Z,6.73
2019-02-25T04:48:03.540Z,7.37
2019-02-25T04:50:32.704Z,6.73
2019-02-25T04:53:02.051Z,7.40
2019-02-25T04:55:31.718Z,6.53
2019-02-25T04:58:01.492Z,6.30
2019-02-25T05:00:31.021Z,6.20
2019-02-25T05:03:00.312Z,6.37
2019-02-25T05:05:29.547Z,5.67
2019-02-25T05:07:59.093Z,5.70
2019-02-25T05:10:28.231Z,5.70
2019-02-25T05:13:01.341Z,5.77
2019-02-25T05:15:30.828Z,5.50
2019-02-25T05:18:00.126Z,5.33
2019-02-25T05:20:29.307Z,6.57
2019-02-25T05:22:58.561Z,6.83
2019-02-25T05:25:28.036Z,6.67
2019-02-25T05:27:57.409Z,6.00
2019-02-25T05:30:26.985Z,5.53
2019-02-25T05:32:56.169Z,5.97
2019-02-25T05:35:25.405Z,5.90
2019-02-25T05:37:55.315Z,6.10
2019-02-25T05:40:24.555Z,6.13
2019-02-25T05:42:54.219Z,5.80
2019-02-25T05:45:23.654Z,5.80
2019-02-25T05:47:52.813Z,6.13
2019-02-25T05:50:22.168Z,6.23
2019-02-25T05:52:51.666Z,7.47
2019-02-25T05:55:20.836Z,5.83
2019-02-25T05:57:50.071Z,6.27
2019-02-25T06:00:21.977Z,6.13
2019-02-25T06:02:51.165Z,6.23
2019-02-25T06:05:20.705Z,6.07
2019-02-25T06:07:49.867Z,5.63
2019-02-25T06:10:19.045Z,6.40
2019-02-25T06:12:48.283Z,5.93
2019-02-25T06:15:17.638Z,6.73
2019-02-25T06:17:46.826Z,6.77
2019-02-25T06:20:16.193Z,5.87
2019-02-25T06:22:45.459Z,6.77
2019-02-25T06:25:15.266Z,6.27
2019-02-25T06:27:44.825Z,6.97
2019-02-25T06:30:16.010Z,6.03
2019-02-25T06:32:45.161Z,6.00
2019-02-25T06:35:14.632Z,5.90
2019-02-25T06:37:44.201Z,6.80
2019-02-25T06:40:15.515Z,6.40
2019-02-25T06:42:45.285Z,7.47
2019-02-25T06:45:16.235Z,6.73
2019-02-25T06:47:45.425Z,8.57
2019-02-25T06:50:14.662Z,8.63
2019-02-25T06:52:43.845Z,7.67
2019-02-25T06:55:14.198Z,8.97
2019-02-25T06:57:43.362Z,8.03
2019-02-25T07:00:14.895Z,7.30
2019-02-25T07:02:44.157Z,7.03
2019-02-25T07:05:44.793Z,6.50
2019-02-25T07:08:44.843Z,7.20
2019-02-25T07:11:28.241Z,7.43
2019-02-25T07:14:06.792Z,7.43
2019-02-25T07:17:06.885Z,6.87
2019-02-25T07:19:43.348Z,7.00
2019-02-25T07:22:34.654Z,6.67
2019-02-25T07:25:15.609Z,6.47
2019-02-25T07:28:03.647Z,7.00
2019-02-25T07:31:01.472Z,6.80
2019-02-25T07:33:43.087Z,6.77
2019-02-25T07:36:31.410Z,6.63
2019-02-25T07:39:31.839Z,6.00
2019-02-25T07:42:32.235Z,6.90
2019-02-25T07:45:19.019Z,7.70
2019-02-25T07:47:59.474Z,7.43
2019-02-25T07:50:47.391Z,7.00
2019-02-25T07:53:38.901Z,7.43
2019-02-25T07:56:33.160Z,7.50
2019-02-25T07:59:19.858Z,7.40
2019-02-25T08:01:57.289Z,7.03
2019-02-25T08:04:40.459Z,7.73
2019-02-25T08:07:19.452Z,6.80
2019-02-25T08:10:02.776Z,6.67
2019-02-25T08:12:40.897Z,6.60
2019-02-25T08:15:32.149Z,7.43
2019-02-25T08:18:24.829Z,6.47
2019-02-25T08:21:09.571Z,7.67
2019-02-25T08:23:47.610Z,7.10
2019-02-25T08:26:54.026Z,7.10
2019-02-25T08:29:35.044Z,6.53
2019-02-25T08:32:18.083Z,7.93
2019-02-25T08:35:04.683Z,7.33
2019-02-25T08:38:12.436Z,7.63
2019-02-25T08:41:19.651Z,7.10
2019-02-25T08:44:10.884Z,7.30
2019-02-25T08:46:53.895Z,7.63
2019-02-25T08:49:27.073Z,6.67
2019-02-25T08:51:56.320Z,7.17
2019-02-25T08:54:26.071Z,7.47
2019-02-25T08:56:55.729Z,7.80
2019-02-25T08:59:25.179Z,7.87
2019-02-25T09:01:54.430Z,8.33
2019-02-25T09:04:23.729Z,7.63
2019-02-25T09:06:52.958Z,10.03
2019-02-25T09:09:22.382Z,8.40
2019-02-25T09:11:51.701Z,8.67
2019-02-25T09:14:20.972Z,7.90
2019-02-25T09:16:50.121Z,7.17
2019-02-25T09:19:20.422Z,8.03
2019-02-25T09:21:49.673Z,8.40
2019-02-25T09:24:19.225Z,8.40
2019-02-25T09:26:48.808Z,9.17
2019-02-25T09:29:18.357Z,8.47
2019-02-25T09:31:47.946Z,8.50
2019-02-25T09:34:17.167Z,7.43
2019-02-25T09:36:46.642Z,7.30
2019-02-25T09:39:16.861Z,7.47
2019-02-25T09:41:46.291Z,7.10
2019-02-25T09:44:15.616Z,8.00
2019-02-25T09:46:46.176Z,8.33
2019-02-25T09:49:15.860Z,7.97
2019-02-25T09:51:45.205Z,7.33
2019-02-25T09:54:14.422Z,7.83
2019-02-25T09:56:43.732Z,7.60
2019-02-25T09:59:13.057Z,6.87
2019-02-25T10:01:42.774Z,7.87
2019-02-25T10:04:12.083Z,7.80
2019-02-25T10:06:41.445Z,7.53
2019-02-25T10:09:10.713Z,8.17
2019-02-25T10:11:39.984Z,7.67
2019-02-25T10:14:09.356Z,7.17
2019-02-25T10:16:38.695Z,8.20
2019-02-25T10:19:08.011Z,8.40
2019-02-25T10:21:37.217Z,7.47
2019-02-25T10:24:06.902Z,7.80
2019-02-25T10:26:36.765Z,8.03
2019-02-25T10:29:07.077Z,7.90
2019-02-25T10:31:38.089Z,8.20
2019-02-25T10:34:07.706Z,7.77
2019-02-25T10:36:36.986Z,8.00
2019-02-25T10:39:12.624Z,7.87
2019-02-25T10:41:42.354Z,7.93
2019-02-25T10:44:11.905Z,8.57
2019-02-25T10:46:42.844Z,8.70
2019-02-25T10:49:12.197Z,13.30
2019-02-25T10:51:43.354Z,12.30
2019-02-25T10:54:12.520Z,8.73
2019-02-25T10:56:49.388Z,8.13
2019-02-25T10:59:18.638Z,6.07
2019-02-25T11:01:47.823Z,5.90
2019-02-25T11:04:17.529Z,7.60
2019-02-25T11:06:48.055Z,9.20
2019-02-25T11:09:35.088Z,9.23
2019-02-25T11:12:04.437Z,8.70
2019-02-25T11:14:35.943Z,10.73
2019-02-25T11:17:05.319Z,8.30
2019-02-25T11:19:34.954Z,8.67
2019-02-25T11:22:05.592Z,7.90
2019-02-25T11:24:35.569Z,11.47
2019-02-25T11:27:05.171Z,8.77
2019-02-25T11:29:37.851Z,10.33
2019-02-25T11:32:07.083Z,9.20
2019-02-25T11:34:37.691Z,11.10
2019-02-25T11:37:07.590Z,12.50
2019-02-25T11:39:37.302Z,6.17
2019-02-25T11:42:08.035Z,7.00
2019-02-25T11:44:37.595Z,5.50
2019-02-25T11:47:06.792Z,6.13
2019-02-25T11:49:36.073Z,5.77
2019-02-25T11:52:05.410Z,12.67
2019-02-25T11:54:34.788Z,5.83
2019-02-25T11:57:04.034Z,4.80
2019-02-25T11:59:33.259Z,18.90
2019-02-25T12:02:02.454Z,5.73
2019-02-25T12:04:31.653Z,5.17
2019-02-25T12:07:01.289Z,4.67
2019-02-25T12:09:30.795Z,6.40
2019-02-25T12:12:00.401Z,4.53
2019-02-25T12:14:30.280Z,5.13
2019-02-25T12:16:59.525Z,4.90
2019-02-25T12:19:28.729Z,5.63
2019-02-25T12:21:57.974Z,4.80
2019-02-25T12:24:27.208Z,5.20
2019-02-25T12:26:56.519Z,5.25
2019-02-25T12:29:25.874Z,5.50
2019-02-25T12:31:55.176Z,12.65
2019-02-25T12:34:24.636Z,8.80
2019-02-25T12:36:55.813Z,6.95
2019-02-25T12:39:27.124Z,6.12
2019-02-25T12:41:57.559Z,5.92
2019-02-25T12:44:27.000Z,5.60
2019-02-25T12:46:57.138Z,5.20
2019-02-25T12:49:26.458Z,5.00
2019-02-25T12:51:55.854Z,5.10
2019-02-25T12:54:25.126Z,5.80
2019-02-25T12:56:54.513Z,11.20
2019-02-25T12:59:24.084Z,8.78
2019-02-25T13:01:53.625Z,4.40
2019-02-25T13:04:23.321Z,5.75
2019-02-25T13:06:52.822Z,5.10
2019-02-25T13:09:22.173Z,5.83
2019-02-25T13:11:51.614Z,5.10
2019-02-25T13:14:20.791Z,6.00
2019-02-25T13:16:50.243Z,7.17
2019-02-25T13:19:19.698Z,8.15
2019-02-25T13:21:49.156Z,8.10
2019-02-25T13:24:18.602Z,6.35
2019-02-25T13:26:48.182Z,6.25
2019-02-25T13:29:17.524Z,5.03
2019-02-25T13:31:46.800Z,5.37
2019-02-25T13:34:16.172Z,8.08
2019-02-25T13:36:45.956Z,10.38
2019-02-25T13:39:15.454Z,23.50
2019-02-25T13:41:45.047Z,9.43
2019-02-25T13:44:14.599Z,6.60
2019-02-25T13:46:43.858Z,4.75
2019-02-25T13:49:13.177Z,6.60
2019-02-25T13:51:42.413Z,5.40
2019-02-25T13:54:11.760Z,7.87
2019-02-25T13:56:41.334Z,10.50
2019-02-25T13:59:11.117Z,16.05
2019-02-25T14:01:40.459Z,17.65
2019-02-25T14:04:10.044Z,6.97
2019-02-25T14:06:39.655Z,6.42
2019-02-25T14:09:10.495Z,7.30
2019-02-25T14:11:40.058Z,9.60
2019-02-25T14:14:09.617Z,15.50
2019-02-25T14:16:39.020Z,13.93
2019-02-25T14:19:08.380Z,19.32
2019-02-25T14:21:37.765Z,12.28
2019-02-25T14:24:07.159Z,6.95
2019-02-25T14:26:37.443Z,8.38
2019-02-25T14:29:07.495Z,13.48
2019-02-25T14:31:37.027Z,7.47
2019-02-25T14:34:06.792Z,15.72
2019-02-25T14:36:36.474Z,28.92
2019-02-25T14:39:27.518Z,66.22
2019-02-25T14:41:57.196Z,17.77
2019-02-25T14:44:30.100Z,12.25
2019-02-25T14:46:58.698Z,7.92
2019-02-25T14:49:30.138Z,6.92
2019-02-25T14:52:00.555Z,5.55
2019-02-25T14:54:32.277Z,6.50
2019-02-25T14:57:01.718Z,6.20
2019-02-25T14:59:31.046Z,5.72
2019-02-25T15:02:02.146Z,5.87
2019-02-25T15:04:32.952Z,5.33
2019-02-25T15:07:04.174Z,6.28
2019-02-25T15:09:35.529Z,6.00
2019-02-25T15:12:06.708Z,5.85
2019-02-25T15:14:37.504Z,6.67
2019-02-25T15:17:10.495Z,5.20
2019-02-25T15:19:40.792Z,5.17
2019-02-25T15:22:11.339Z,6.00
2019-02-25T15:24:43.971Z,6.35
2019-02-25T15:27:12.991Z,6.87
2019-02-25T15:29:44.515Z,7.22
2019-02-25T15:32:13.913Z,6.58
2019-02-25T15:34:43.474Z,8.00
2019-02-25T15:37:13.997Z,6.45
2019-02-25T15:39:43.662Z,26.30
2019-02-25T15:42:14.569Z,14.70
2019-02-25T15:44:44.533Z,16.82
2019-02-25T15:47:16.013Z,10.53
2019-02-25T15:49:45.518Z,6.80
2019-02-25T15:52:16.970Z,6.17
2019-02-25T15:54:46.618Z,12.80
2019-02-25T15:57:16.135Z,10.95
2019-02-25T15:59:45.530Z,14.85
2019-02-25T16:02:15.048Z,9.90
2019-02-25T16:04:44.592Z,19.20
2019-02-25T16:07:13.981Z,16.95
2019-02-25T16:09:43.613Z,17.25
2019-02-25T16:12:13.097Z,14.53
2019-02-25T16:14:44.163Z,8.63
2019-02-25T16:17:13.666Z,13.28
2019-02-25T16:19:47.349Z,19.60
2019-02-25T16:22:14.194Z,16.30
2019-02-25T16:24:43.737Z,16.67
2019-02-25T16:27:13.342Z,6.35
2019-02-25T16:29:42.943Z,6.90
2019-02-25T16:32:12.780Z,7.05
2019-02-25T16:34:42.767Z,7.33
2019-02-25T16:37:12.301Z,7.87
2019-02-25T16:39:42.012Z,7.25
2019-02-25T16:42:11.545Z,7.03
2019-02-25T16:44:41.043Z,7.33
2019-02-25T16:47:11.789Z,6.33
2019-02-25T16:49:41.540Z,6.25
2019-02-25T16:52:11.131Z,5.87
2019-02-25T16:54:40.548Z,6.50
2019-02-25T16:57:09.984Z,6.75
2019-02-25T16:59:39.971Z,6.58
2019-02-25T17:02:13.718Z,6.27
2019-02-25T17:04:40.719Z,5.72
2019-02-25T17:07:14.387Z,5.33
2019-02-25T17:09:44.891Z,5.30
2019-02-25T17:12:14.254Z,6.27
2019-02-25T17:14:43.893Z,8.73
2019-02-25T17:17:13.202Z,8.43
2019-02-25T17:19:42.761Z,8.83
2019-02-25T17:22:12.241Z,9.47
2019-02-25T17:24:41.877Z,6.57
2019-02-25T17:27:12.372Z,5.90
2019-02-25T17:29:42.991Z,5.77
2019-02-25T17:32:14.456Z,6.67
2019-02-25T17:34:44.140Z,5.10
2019-02-25T17:37:14.833Z,6.33
2019-02-25T17:39:44.817Z,6.70
2019-02-25T17:42:14.643Z,8.40
2019-02-25T17:44:44.356Z,9.50
2019-02-25T17:47:23.646Z,7.57
2019-02-25T17:49:44.760Z,15.17
2019-02-25T17:52:15.853Z,18.47
2019-02-25T17:54:45.432Z,15.00
2019-02-25T17:57:15.792Z,13.43
2019-02-25T17:59:46.390Z,28.43
2019-02-25T18:02:16.426Z,32.40
2019-02-25T18:04:47.049Z,35.30
2019-02-25T18:07:17.223Z,13.43
2019-02-25T18:09:47.039Z,13.90
2019-02-25T18:12:18.893Z,10.90
2019-02-25T18:14:48.037Z,5.03
2019-02-25T18:17:19.318Z,21.10
2019-02-25T18:19:50.161Z,20.90
2019-02-25T18:22:19.571Z,25.87
2019-02-25T18:24:49.160Z,12.50
2019-02-25T18:27:18.955Z,8.30
2019-02-25T18:29:50.026Z,13.13
2019-02-25T18:32:19.522Z,24.70
2019-02-25T18:34:50.039Z,17.07
2019-02-25T18:37:20.001Z,32.27
2019-02-25T18:39:50.061Z,27.80
2019-02-25T18:42:20.574Z,26.57
2019-02-25T18:44:51.328Z,31.73
2019-02-25T18:47:23.002Z,37.10
2019-02-25T18:49:53.939Z,38.63
2019-02-25T18:52:23.757Z,36.53
2019-02-25T18:54:53.100Z,18.10
2019-02-25T18:57:23.128Z,19.10
2019-02-25T18:59:54.789Z,23.43
2019-02-25T19:02:24.661Z,72.30
2019-02-25T19:04:54.066Z,61.40
2019-02-25T19:07:25.110Z,30.77
2019-02-25T19:09:56.072Z,52.20
2019-02-25T19:12:25.771Z,51.50
2019-02-25T19:14:57.275Z,30.03
2019-02-25T19:17:27.523Z,46.77
2019-02-25T19:19:57.855Z,40.93
2019-02-25T19:22:29.758Z,47.30
2019-02-25T19:24:59.229Z,22.57
2019-02-25T19:27:29.559Z,24.97
2019-02-25T19:30:02.775Z,26.27
2019-02-25T19:32:31.472Z,34.17
2019-02-25T19:35:03.981Z,11.70
2019-02-25T19:37:33.931Z,9.03
2019-02-25T19:40:07.279Z,8.60
2019-02-25T19:42:34.776Z,6.90
2019-02-25T19:45:06.353Z,14.87
2019-02-25T19:47:35.988Z,16.33
2019-02-25T19:50:09.831Z,17.23
2019-02-25T19:52:41.462Z,27.90
2019-02-25T19:55:12.858Z,10.20
2019-02-25T19:57:42.613Z,6.50
2019-02-25T20:00:14.887Z,7.50
2019-02-25T20:02:47.901Z,16.90
2019-02-25T20:05:19.132Z,23.83
2019-02-25T20:07:47.919Z,22.27
2019-02-25T20:10:17.377Z,15.53
2019-02-25T20:12:50.055Z,10.77
2019-02-25T20:15:20.849Z,13.97
2019-02-25T20:17:51.287Z,18.30
2019-02-25T20:20:21.789Z,24.87
2019-02-25T20:22:51.039Z,54.97
2019-02-25T20:25:21.790Z,25.83
2019-02-25T20:27:52.749Z,19.87
2019-02-25T20:30:23.707Z,25.30
2019-02-25T20:32:54.295Z,21.47
2019-02-25T20:35:24.634Z,30.27
2019-02-25T20:37:55.696Z,17.37
2019-02-25T20:40:28.230Z,12.70
2019-02-25T20:42:58.738Z,11.03
2019-02-25T20:45:30.349Z,19.43
2019-02-25T20:48:00.167Z,12.90
2019-02-25T20:50:31.206Z,9.50
2019-02-25T20:53:04.925Z,14.30
2019-02-25T20:55:32.220Z,41.60
2019-02-25T20:58:02.612Z,41.00
2019-02-25T21:00:34.838Z,18.67
2019-02-25T21:03:03.331Z,16.90
2019-02-25T21:05:33.319Z,20.77
2019-02-25T21:08:02.694Z,21.60
2019-02-25T21:10:35.037Z,36.60
2019-02-25T21:13:03.431Z,14.87
2019-02-25T21:15:34.034Z,11.03
2019-02-25T21:18:07.265Z,19.67
2019-02-25T21:20:35.239Z,26.47
2019-02-25T21:23:05.959Z,43.27
2019-02-25T21:25:36.761Z,17.97
2019-02-25T21:28:08.969Z,12.43
2019-02-25T21:30:41.188Z,39.53
2019-02-25T21:33:13.150Z,27.50
2019-02-25T21:35:41.896Z,11.20
2019-02-25T21:38:11.404Z,8.80
2019-02-25T21:40:40.798Z,14.00
2019-02-25T21:43:14.449Z,9.20
2019-02-25T21:45:41.762Z,8.17
2019-02-25T21:48:11.179Z,8.20
2019-02-25T21:50:42.611Z,7.30
2019-02-25T21:53:13.947Z,7.87
2019-02-25T21:55:43.179Z,14.40
2019-02-25T21:58:12.640Z,23.40
2019-02-25T22:00:42.203Z,22.63
2019-02-25T22:03:14.604Z,15.40
2019-02-25T22:05:43.430Z,11.40
2019-02-25T22:08:13.611Z,9.87
2019-02-25T22:10:44.081Z,9.63
2019-02-25T22:13:18.210Z,10.20
2019-02-25T22:15:47.543Z,9.27
2019-02-25T22:18:17.032Z,8.10
2019-02-25T22:20:47.653Z,10.87
2019-02-25T22:23:17.350Z,11.20
2019-02-25T22:25:46.784Z,9.73
2019-02-25T22:28:16.577Z,9.17
2019-02-25T22:30:47.556Z,9.07
2019-02-25T22:33:26.824Z,8.33
2019-02-25T22:35:51.220Z,8.27
2019-02-25T22:38:20.111Z,8.93
2019-02-25T22:40:51.149Z,11.50
2019-02-25T22:43:20.868Z,12.30
2019-02-25T22:45:50.258Z,16.17
2019-02-25T22:48:21.542Z,10.57
2019-02-25T22:50:53.227Z,8.70
2019-02-25T22:53:22.857Z,7.43
2019-02-25T22:55:54.364Z,8.43
2019-02-25T22:58:23.370Z,8.07
2019-02-25T23:00:58.511Z,8.63
2019-02-25T23:03:27.767Z,7.33
2019-02-25T23:05:57.285Z,8.03
2019-02-25T23:08:26.681Z,7.87
2019-02-25T23:10:56.310Z,8.20
2019-02-25T23:13:27.494Z,7.90
2019-02-25T23:15:57.566Z,6.60
2019-02-25T23:18:28.056Z,7.20
2019-02-25T23:21:00.423Z,7.07
2019-02-25T23:23:32.889Z,7.40
2019-02-25T23:26:02.598Z,7.33
2019-02-25T23:28:31.969Z,7.40
2019-02-25T23:31:09.351Z,7.10
2019-02-25T23:34:20.892Z,7.27
2019-02-25T23:36:52.355Z,7.07
2019-02-25T23:39:26.186Z,7.03
2019-02-25T23:41:55.648Z,7.13
2019-02-25T23:44:24.930Z,7.47
2019-02-25T23:46:57.666Z,7.30
2019-02-25T23:49:27.531Z,14.50
2019-02-25T23:51:56.750Z,9.50
2019-02-25T23:54:27.999Z,7.60
2019-02-25T23:56:59.635Z,7.20
2019-02-25T23:59:29.323Z,8.03
